AA4599 / N101HQ 7700 Squawk Report (19th of July, 2019)

Aircraft E75S Reg No. N101HQ Age N/A
Model Emb-175 Jet engines 2 First flight 01-07
Registered 08-04-15 Rollout 01-07 Delivered 27-02-07
Construction No. 17000156 Line No. N/A Series 200LR
ADSHEX A00929 Airline name American Eagle Airlines Owner Republic Airline
Airfield based Indianapolis-International~IN~N First tracked 2017-07-13 21:28:00

Flight history for N101HQ

Route Flight No Date Playback
???? AA4664 2019-08-20 00:50:00
Philadelphia Intl (PHL) - Port Columbus (CMH) - Philadelphia Intl (PHL) AA4425 2019-08-19 23:42:00
Philadelphia Intl (PHL) - Buffalo Niagara Intl (BUF) - Philadelphia Intl (PHL) AA4531 2019-08-19 17:15:00
Pierre Elliott Trudeau (YUL) - Philadelphia Intl (PHL) AA4678 2019-08-19 13:15:00
Philadelphia Intl (PHL) - Pierre Elliott Trudeau (YUL) AA4677 2019-08-19 10:05:00
Philadelphia Intl (PHL) - Lambert St Louis Intl (STL) - Philadelphia Intl (PHL) AA4435 2019-08-19 01:14:00
Philadelphia Intl (PHL) - Louisville International Airport (SDF) - Philadelphia Intl (PHL) AA4410 2019-08-18 18:44:00
Port Columbus (CMH) - Philadelphia Intl (PHL) AA4420 2019-08-18 13:20:00
Ronald Reagan Washington Natl (DCA) - Port Columbus (CMH) AA4704 2019-08-18 00:30:00
Ronald Reagan Washington Natl (DCA) - Indianapolis Intl (IND) - Ronald Reagan Washington Natl (DCA) AA4363 2019-08-17 21:59:00
Minneapolis-St.Paul Intl (MSP) - Ronald Reagan Washington Natl (DCA) AA4594 2019-08-17 14:40:00
Ronald Reagan Washington Natl (DCA) - Minneapolis-St.Paul Intl (MSP) AA4502 2019-08-17 12:18:00
Ronald Reagan Washington Natl (DCA) - Indianapolis Intl (IND) - Ronald Reagan Washington Natl (DCA) AA4578 2019-08-17 02:04:00
Ronald Reagan Washington Natl (DCA) - T. F. Green Airport (PVD) - Ronald Reagan Washington Natl (DCA) AA4424 2019-08-16 21:40:00
Louis Armstrong New Orleans Intl (MSY) - Ronald Reagan Washington Natl (DCA) AA4663 2019-08-16 15:50:00
Ronald Reagan Washington Natl (DCA) - Louis Armstrong New Orleans Intl (MSY) AA4574 2019-08-16 05:21:00
Ronald Reagan Washington Natl (DCA) - Lambert St Louis Intl (STL) - Ronald Reagan Washington Natl (DCA) AA4431 2019-08-16 01:01:00
Ronald Reagan Washington Natl (DCA) - Nashville Intl (BNA) - Ronald Reagan Washington Natl (DCA) AA4709 2019-08-15 17:46:00
Nashville Intl (BNA) - Ronald Reagan Washington Natl (DCA) AA4616 2019-08-15 12:21:00
La Guardia (LGA) - Nashville Intl (BNA) AA4381 2019-08-15 11:07:00
Time Lat Lon Altitude Heading Speed Vertical Rate
2019-07-19 20:56:00 GMT 39.870300 -75.227386 275 257 132 -512
2019-07-19 20:55:50 GMT 39.873154 -75.212952 375 256 130 -576
2019-07-19 20:55:41 GMT 39.873154 -75.212952 525 256 132 -832
2019-07-19 20:55:32 GMT 39.874786 -75.205116 600 256 132 -768
2019-07-19 20:55:20 GMT 39.876526 -75.196220 725 256 132 -640
2019-07-19 20:55:14 GMT 39.877159 -75.192993 775 256 132 -704
2019-07-19 20:55:06 GMT 39.878464 -75.186462 875 256 133 -576
2019-07-19 20:55:02 GMT 39.879021 -75.183655 925 257 132 -704
2019-07-19 20:54:52 GMT 39.880600 -75.175446 1,050 256 137 -960
2019-07-19 20:54:49 GMT 39.881210 -75.172485 1,075 256 135 -704
2019-07-19 20:54:45 GMT 39.881699 -75.170128 1,100 256 133 -704
2019-07-19 20:54:42 GMT 39.882202 -75.167618 1,150 255 134 -640
2019-07-19 20:54:38 GMT 39.883026 -75.163620 1,200 256 136 -768
2019-07-19 20:54:34 GMT 39.883724 -75.160217 1,250 256 138 -704
2019-07-19 20:54:27 GMT 39.884491 -75.156158 1,375 256 134 -768
2019-07-19 20:54:22 GMT 39.885399 -75.151611 1,375 257 133 -512
2019-07-19 20:54:10 GMT 39.887100 -75.142960 1,475 256 136 -704
2019-07-19 20:54:06 GMT 39.887726 -75.139648 1,525 256 137 -768
2019-07-19 20:54:00 GMT 39.888702 -75.134964 1,625 257 138 -704
2019-07-19 20:53:57 GMT 39.889297 -75.131737 1,650 257 137 -704
2019-07-19 20:53:49 GMT 39.890659 -75.124817 1,750 256 136 -704
2019-07-19 20:53:46 GMT 39.890945 -75.123375 1,775 256 134 -576
2019-07-19 20:53:38 GMT 39.892136 -75.117409 1,875 256 134 -576
2019-07-19 20:53:28 GMT 39.893875 -75.108566 2,000 256 135 -768
2019-07-19 20:53:18 GMT 39.895248 -75.101646 2,100 256 138 -704
2019-07-19 20:53:14 GMT 39.895966 -75.098022 2,150 256 139 -768
2019-07-19 20:53:08 GMT 39.896942 -75.093285 2,225 256 139 -768
2019-07-19 20:53:03 GMT 39.897736 -75.089233 2,350 255 137 -768
2019-07-19 20:52:57 GMT 39.898682 -75.084511 2,375 256 137 -704
2019-07-19 20:52:53 GMT 39.899414 -75.080750 2,425 256 138 -768
2019-07-19 20:52:49 GMT 39.900101 -75.077164 2,475 256 137 -576
2019-07-19 20:52:46 GMT 39.900375 -75.075790 2,500 256 137 -576
2019-07-19 20:52:43 GMT 39.900879 -75.073219 2,525 257 137 -640
2019-07-19 20:52:40 GMT 39.901367 -75.070801 2,550 257 132 -704
2019-07-19 20:52:36 GMT 39.901924 -75.067627 2,600 257 132 -640
2019-07-19 20:52:27 GMT 39.903442 -75.059792 2,725 256 133 -768
2019-07-19 20:52:22 GMT 39.903927 -75.057068 2,750 257 133 -576
2019-07-19 20:52:19 GMT 39.904533 -75.053894 2,800 256 135 -768
2019-07-19 20:52:14 GMT 39.905136 -75.050781 2,925 256 137 -704
2019-07-19 20:52:08 GMT 39.906097 -75.045753 2,925 256 142 -640
2019-07-19 20:52:03 GMT 39.907047 -75.040955 2,975 256 142 -384
2019-07-19 20:51:56 GMT 39.908070 -75.035645 3,000 256 143 -128
2019-07-19 20:51:53 GMT 39.908768 -75.032288 3,000 256 146 -64
2019-07-19 20:51:48 GMT 39.909531 -75.028320 3,000 256 148 -128
2019-07-19 20:51:42 GMT 39.910721 -75.022713 3,000 254 155 0
2019-07-19 20:51:36 GMT 39.912003 -75.017220 3,000 254 163 -128
2019-07-19 20:51:33 GMT 39.912415 -75.015305 3,000 254 166 -192
2019-07-19 20:51:30 GMT 39.913147 -75.012199 3,000 256 165 -192
2019-07-19 20:51:27 GMT 39.913788 -75.009155 3,025 257 165 -64
2019-07-19 20:51:21 GMT 39.914726 -75.003479 3,025 262 164 128
2019-07-19 20:51:18 GMT 39.914978 -75.000916 3,025 262 164 128
2019-07-19 20:51:13 GMT 39.915054 -74.995544 3,000 275 164 -64
2019-07-19 20:51:10 GMT 39.914658 -74.991783 3,025 283 163 -192
2019-07-19 20:51:06 GMT 39.913937 -74.987854 3,025 285 163 -192
2019-07-19 20:50:58 GMT 39.912354 -74.981750 3,025 296 165 0
2019-07-19 20:50:48 GMT 39.907333 -74.973930 3,025 323 173 -64
2019-07-19 20:50:44 GMT 39.904770 -74.971893 3,025 334 178 128
2019-07-19 20:50:37 GMT 39.898758 -74.969604 3,025 352 186 64
2019-07-19 20:50:32 GMT 39.893143 -74.968552 3,025 353 181 64
2019-07-19 20:50:29 GMT 39.891964 -74.968323 3,025 352 183 -64
2019-07-19 20:50:26 GMT 39.889587 -74.967896 3,025 353 181 64
2019-07-19 20:50:21 GMT 39.885773 -74.967239 3,000 353 180 128
2019-07-19 20:50:18 GMT 39.883072 -74.966759 3,000 353 180 -64
2019-07-19 20:50:14 GMT 39.878975 -74.966003 3,025 352 183 -128
2019-07-19 20:50:08 GMT 39.874420 -74.965088 3,050 353 182 64
2019-07-19 20:50:02 GMT 39.869293 -74.964195 3,050 353 182 192
2019-07-19 20:49:57 GMT 39.865265 -74.963478 3,000 353 182 -64
2019-07-19 20:49:53 GMT 39.861557 -74.962883 3,000 353 182 -128
2019-07-19 20:49:50 GMT 39.858627 -74.962402 3,000 353 182 64
2019-07-19 20:49:47 GMT 39.856674 -74.962097 3,000 353 181 128
2019-07-19 20:49:43 GMT 39.850998 -74.961121 3,025 353 181 -320
2019-07-19 20:49:40 GMT 39.850998 -74.961121 3,025 353 181 -576
2019-07-19 20:49:36 GMT 39.847645 -74.960571 3,200 353 180 -1344
2019-07-19 20:49:30 GMT 39.842384 -74.959656 3,225 354 181 -1344
2019-07-19 20:49:26 GMT 39.838486 -74.959061 3,325 353 180 -1280
2019-07-19 20:49:19 GMT 39.833725 -74.958313 3,450 353 180 -1280
2019-07-19 20:49:15 GMT 39.830154 -74.957748 3,550 357 180 -1408
2019-07-19 20:49:09 GMT 39.824890 -74.957031 3,700 358 180 -1408
2019-07-19 20:49:05 GMT 39.820816 -74.956909 3,800 4 182 -1408
2019-07-19 20:49:01 GMT 39.818272 -74.957214 3,925 19 187 -1408
2019-07-19 20:48:58 GMT 39.815781 -74.958046 4,000 24 189 -1408
2019-07-19 20:48:54 GMT 39.812733 -74.959717 4,025 28 190 -1344
2019-07-19 20:48:50 GMT 39.809658 -74.962036 4,100 32 192 -1216
2019-07-19 20:48:47 GMT 39.807724 -74.963661 4,175 32 191 -1216
2019-07-19 20:48:43 GMT 39.804630 -74.966187 4,250 32 192 -1344
2019-07-19 20:48:38 GMT 39.800171 -74.969810 4,375 32 192 -1344
2019-07-19 20:48:33 GMT 39.796391 -74.972900 4,475 32 192 -1408
2019-07-19 20:48:27 GMT 39.792023 -74.976494 4,625 32 193 -1280
2019-07-19 20:48:21 GMT 39.787918 -74.979858 4,725 32 193 -1088
2019-07-19 20:48:15 GMT 39.783508 -74.983482 4,800 32 195 -960
2019-07-19 20:48:12 GMT 39.779305 -74.987000 4,900 32 199 -960
2019-07-19 20:48:06 GMT 39.775536 -74.990112 4,950 32 202 -768
2019-07-19 20:48:00 GMT 39.771767 -74.993225 5,000 32 205 -576
2019-07-19 20:47:54 GMT 39.766937 -74.997154 5,025 32 213 -256
2019-07-19 20:47:51 GMT 39.760311 -75.002625 5,025 32 218 192
2019-07-19 20:47:47 GMT 39.760311 -75.002625 5,025 32 227 -128
2019-07-19 20:47:43 GMT 39.757004 -75.005333 5,025 33 229 -192
2019-07-19 20:47:39 GMT 39.750771 -75.010681 5,025 34 233 0
2019-07-19 20:47:34 GMT 39.749001 -75.012268 5,025 36 236 64
2019-07-19 20:47:30 GMT 39.745285 -75.015961 5,025 41 240 -64
2019-07-19 20:47:23 GMT 39.740341 -75.022278 5,025 49 243 -128
2019-07-19 20:47:20 GMT 39.737457 -75.026794 5,025 51 245 384
2019-07-19 20:47:13 GMT 39.732147 -75.035423 5,000 51 255 64
2019-07-19 20:47:09 GMT 39.729916 -75.039001 5,000 51 260 64
2019-07-19 20:47:02 GMT 39.721344 -75.052742 5,000 50 271 -64
2019-07-19 20:46:59 GMT 39.721344 -75.052742 5,025 50 275 -320
2019-07-19 20:46:52 GMT 39.715996 -75.061218 5,100 51 282 -1344
2019-07-19 20:46:48 GMT 39.706360 -75.076660 5,400 50 284 -1792
2019-07-19 20:46:41 GMT 39.706360 -75.076660 5,500 50 285 -2560
2019-07-19 20:46:37 GMT 39.703938 -75.080505 5,600 50 284 -2560
2019-07-19 20:46:28 GMT 39.695885 -75.093140 6,075 49 282 -2368
2019-07-19 20:46:20 GMT 39.688808 -75.104126 6,400 50 282 -2432
2019-07-19 20:46:16 GMT 39.686325 -75.107971 6,500 50 283 -2368
2019-07-19 20:46:13 GMT 39.683578 -75.112213 6,625 49 282 -2304
2019-07-19 20:46:08 GMT 39.680058 -75.117676 6,750 50 286 -1984
2019-07-19 20:46:05 GMT 39.676163 -75.123672 6,975 49 283 -2304
2019-07-19 20:46:01 GMT 39.673634 -75.127502 7,125 50 287 -1920
2019-07-19 20:45:54 GMT 39.667969 -75.136154 7,325 49 284 -2176
2019-07-19 20:45:50 GMT 39.662971 -75.143921 7,550 50 286 -2048
2019-07-19 20:45:45 GMT 39.659180 -75.149826 7,700 50 288 -1856
2019-07-19 20:45:38 GMT 39.653477 -75.158752 7,900 50 288 -1856
2019-07-19 20:45:32 GMT 39.648926 -75.165894 8,075 50 288 -1792
2019-07-19 20:45:29 GMT 39.646305 -75.169861 8,225 48 289 -2048
2019-07-19 20:45:25 GMT 39.642883 -75.174904 8,400 29 288 -1920
2019-07-19 20:45:17 GMT 39.634716 -75.185303 8,575 38 289 -1856
2019-07-19 20:45:11 GMT 39.628647 -75.190613 8,775 29 288 -1920
2019-07-19 20:45:07 GMT 39.623543 -75.193726 9,275 20 286 -2304
2019-07-19 20:45:04 GMT 39.616333 -75.197174 9,150 19 286 -2624
2019-07-19 20:44:56 GMT 39.609577 -75.200256 9,375 19 285 -2688
2019-07-19 20:44:51 GMT 39.602829 -75.203323 9,475 19 284 -2624
2019-07-19 20:44:43 GMT 39.593765 -75.207443 9,850 19 284 -1792
2019-07-19 20:44:33 GMT 39.577827 -75.214661 10,025 19 296 -64
2019-07-19 20:44:25 GMT 39.569401 -75.218506 10,025 19 316 0
2019-07-19 20:44:22 GMT 39.565491 -75.220276 10,025 19 312 -64
2019-07-19 20:44:18 GMT 39.561356 -75.222198 10,025 19 319 64
2019-07-19 20:44:08 GMT 39.546825 -75.228638 10,000 17 341 128
2019-07-19 20:43:59 GMT 39.533325 -75.233765 10,000 12 351 -384
2019-07-19 20:43:56 GMT 39.526806 -75.235413 10,025 7 357 64
2019-07-19 20:43:52 GMT 39.513336 -75.236641 10,025 1 359 64
2019-07-19 20:43:47 GMT 39.505234 -75.236588 10,025 0 359 -64
2019-07-19 20:43:43 GMT 39.505234 -75.236588 10,025 0 358 0
2019-07-19 20:43:37 GMT 39.497086 -75.236526 10,025 0 358 64
2019-07-19 20:43:31 GMT 39.487518 -75.236450 10,025 0 357 64
2019-07-19 20:43:26 GMT 39.478859 -75.236328 10,025 0 357 64
2019-07-19 20:43:21 GMT 39.469849 -75.236282 10,025 0 357 -64
2019-07-19 20:43:14 GMT 39.459274 -75.236168 10,025 0 358 0
2019-07-19 20:43:07 GMT 39.447281 -75.236046 10,025 0 358 -64
2019-07-19 20:43:04 GMT 39.442657 -75.235985 10,025 0 358 0
2019-07-19 20:42:58 GMT 39.432678 -75.235924 10,025 0 359 0
2019-07-19 20:42:53 GMT 39.421371 -75.235809 10,025 0 359 64
2019-07-19 20:42:50 GMT 39.418076 -75.235748 10,025 0 359 0
2019-07-19 20:42:43 GMT 39.399162 -75.235535 10,025 0 359 -64
2019-07-19 20:42:32 GMT 39.390503 -75.235413 10,025 0 358 64
2019-07-19 20:42:17 GMT 39.365616 -75.235214 10,025 0 359 64
2019-07-19 20:42:08 GMT 39.350048 -75.235107 10,025 0 358 0
2019-07-19 20:42:02 GMT 39.339390 -75.234985 10,025 0 359 -64
2019-07-19 20:41:57 GMT 39.324772 -75.234863 10,025 0 359 64
2019-07-19 20:41:47 GMT 39.312061 -75.234741 10,025 0 359 -64
2019-07-19 20:41:38 GMT 39.296654 -75.234558 10,025 0 359 -64
2019-07-19 20:41:30 GMT 39.276489 -75.234375 10,025 0 357 0
2019-07-19 20:41:25 GMT 39.276489 -75.234375 10,025 0 358 0
2019-07-19 20:41:13 GMT 39.257263 -75.234138 10,025 0 357 64
2019-07-19 20:41:02 GMT 39.237991 -75.233955 10,025 0 357 0
2019-07-19 20:40:55 GMT 39.226776 -75.233841 10,025 0 357 0
2019-07-19 20:40:49 GMT 39.218445 -75.233765 10,025 0 357 64
2019-07-19 20:40:36 GMT 39.196930 -75.233536 10,025 0 357 0
2019-07-19 20:40:26 GMT 39.171753 -75.233299 10,025 0 357 -64
2019-07-19 20:40:16 GMT 39.158253 -75.233154 10,025 0 356 -64
2019-07-19 20:40:12 GMT 39.155552 -75.233154 10,025 0 356 -64
2019-07-19 20:40:01 GMT 39.139389 -75.233002 10,025 0 356 -64
2019-07-19 20:39:54 GMT 39.125851 -75.232849 10,025 0 356 64
2019-07-19 20:39:48 GMT 39.117599 -75.232765 10,025 0 356 -64
2019-07-19 20:39:36 GMT 39.089729 -75.232483 10,025 0 355 -64
2019-07-19 20:39:25 GMT 39.077019 -75.232361 10,025 0 354 -64
2019-07-19 20:39:17 GMT 39.067429 -75.232285 10,025 0 354 64
2019-07-19 20:39:08 GMT 39.038380 -75.231995 10,025 0 353 0
2019-07-19 20:39:00 GMT 39.038380 -75.231995 10,025 0 353 0
2019-07-19 20:38:49 GMT 39.020325 -75.231812 10,025 0 353 64
2019-07-19 20:38:37 GMT 39.000046 -75.231628 10,025 0 352 -64
2019-07-19 20:38:28 GMT 38.986012 -75.231506 10,025 0 353 0
2019-07-19 20:38:17 GMT 38.968597 -75.231392 10,025 0 354 0
2019-07-19 20:38:06 GMT 38.950150 -75.231209 10,025 0 356 64
2019-07-19 20:37:56 GMT 38.931496 -75.231018 10,025 0 358 64
2019-07-19 20:37:42 GMT 38.909088 -75.230850 10,025 0 357 -64
2019-07-19 20:37:34 GMT 38.895512 -75.230713 10,025 0 356 64
2019-07-19 20:37:22 GMT 38.877869 -75.230553 10,025 0 355 0
2019-07-19 20:37:12 GMT 38.861252 -75.230469 10,025 0 355 0
2019-07-19 20:36:40 GMT 38.804306 -75.230316 10,025 0 355 64
2019-07-19 20:36:23 GMT 38.781326 -75.230133 10,025 0 356 0
2019-07-19 20:36:06 GMT 38.752411 -75.230286 10,025 9 350 0
2019-07-19 20:35:24 GMT 38.683319 -75.235924 10,025 13 349 0
2019-07-19 20:35:10 GMT 38.662846 -75.242065 10,025 13 348 64
2019-07-19 20:34:58 GMT 38.643990 -75.247986 10,025 13 349 64
2019-07-19 20:34:52 GMT 38.634586 -75.250916 10,025 13 349 -64
2019-07-19 20:34:41 GMT 38.617264 -75.256287 10,025 13 349 -64
2019-07-19 20:34:25 GMT 38.591572 -75.264221 10,025 13 350 64
2019-07-19 20:34:13 GMT 38.572266 -75.270264 10,025 13 351 0
2019-07-19 20:34:04 GMT 38.558147 -75.274658 10,025 13 351 0
2019-07-19 20:33:53 GMT 38.540363 -75.280151 10,025 13 351 64
2019-07-19 20:33:43 GMT 38.525299 -75.284828 10,025 13 352 0
2019-07-19 20:33:35 GMT 38.512897 -75.288635 10,025 13 353 -64
2019-07-19 20:33:17 GMT 38.482918 -75.297852 10,025 13 353 -64
2019-07-19 20:33:12 GMT 38.475285 -75.300232 10,025 13 353 64
2019-07-19 20:32:29 GMT 38.406433 -75.321548 10,025 13 353 0
2019-07-19 20:32:20 GMT 38.392776 -75.325829 10,025 13 353 0
2019-07-19 20:31:13 GMT 38.289139 -75.370010 10,025 28 354 0
2019-07-19 20:31:02 GMT 38.273296 -75.381081 10,025 28 354 0
We lost coverage of the aircraft here for a total of 10 minutes
2019-07-19 20:20:57 GMT 37.492615 -76.110359 9,975 46 340 -64
2019-07-19 20:18:10 GMT 37.308174 -76.349907 0 46 343 0
2019-07-19 20:18:06 GMT 37.303940 -76.355446 9,975 46 342 -64
2019-07-19 20:17:54 GMT 37.290668 -76.373070 9,975 46 342 64
2019-07-19 20:17:48 GMT 37.283112 -76.383324 9,975 47 342 -64
2019-07-19 20:17:37 GMT 37.272400 -76.397987 9,975 48 342 0
2019-07-19 20:17:27 GMT 37.261826 -76.412773 9,975 48 343 -64
2019-07-19 20:17:15 GMT 37.249657 -76.430695 9,975 50 343 64
2019-07-19 20:17:06 GMT 37.240582 -76.445023 9,975 53 344 -64
2019-07-19 20:16:54 GMT 37.229546 -76.464722 9,975 58 345 -64
2019-07-19 20:15:09 GMT 37.144501 -76.647987 9,975 59 345 -64
2019-07-19 20:14:51 GMT 37.129990 -76.679253 9,975 59 345 0
2019-07-19 20:14:46 GMT 37.127365 -76.684929 9,975 60 344 64
2019-07-19 20:14:37 GMT 37.119267 -76.702423 9,975 59 345 64
2019-07-19 20:14:25 GMT 37.110489 -76.721504 9,975 60 345 -64
2019-07-19 20:14:15 GMT 37.101288 -76.741722 9,975 60 346 128
2019-07-19 20:14:02 GMT 37.091354 -76.763344 9,975 60 348 -64
2019-07-19 20:13:19 GMT 37.058281 -76.836052 9,975 60 344 0
2019-07-19 20:13:10 GMT 37.050476 -76.853104 9,975 60 344 64
2019-07-19 20:12:56 GMT 37.039444 -76.877296 9,975 60 343 -64
2019-07-19 20:12:48 GMT 37.033035 -76.891266 9,975 60 343 0
2019-07-19 20:12:34 GMT 37.021179 -76.916740 10,150 57 348 -1664
2019-07-19 20:12:26 GMT 36.980072 -76.953148 10,325 51 348 -2048
2019-07-19 20:12:00 GMT 36.980072 -76.953148 11,875 8 339 -4288
2019-07-19 20:11:52 GMT 36.966110 -76.953384 12,450 355 343 -3712
2019-07-19 20:11:44 GMT 36.955444 -76.950638 12,875 344 347 -3776
2019-07-19 20:11:35 GMT 36.939991 -76.941315 13,600 325 355 -4288
2019-07-19 20:11:24 GMT 36.927612 -76.927322 14,325 309 360 -4288
2019-07-19 20:11:14 GMT 36.918045 -76.907974 15,075 291 366 -4160
2019-07-19 20:11:03 GMT 36.913364 -76.887398 15,800 273 371 -4544
2019-07-19 20:10:52 GMT 36.913513 -76.863625 16,700 265 373 -4352
2019-07-19 20:10:40 GMT 36.919785 -76.838844 17,500 246 378 -4480
2019-07-19 20:10:21 GMT 36.941986 -76.806183 18,850 230 383 -4096
2019-07-19 20:10:17 GMT 36.948231 -76.800583 19,150 216 391 -4160
2019-07-19 20:10:08 GMT 36.960243 -76.790138 19,725 215 395 -4416
2019-07-19 20:09:57 GMT 36.976776 -76.775673 20,400 216 404 -3968
2019-07-19 20:09:47 GMT 36.993118 -76.761124 21,250 216 404 -3968
2019-07-19 20:09:35 GMT 37.009495 -76.746552 22,050 216 409 -4544
2019-07-19 20:09:25 GMT 37.025208 -76.732315 22,800 217 413 -4544
2019-07-19 20:09:14 GMT 37.041615 -76.717407 23,875 217 416 -4736
2019-07-19 20:09:03 GMT 37.058853 -76.701813 24,475 217 420 -4416
2019-07-19 20:08:54 GMT 37.074249 -76.687798 25,550 217 435 -3392
2019-07-19 20:08:43 GMT 37.091492 -76.672180 25,800 217 438 -3392
2019-07-19 20:08:32 GMT 37.111954 -76.653595 26,675 217 445 -6528
2019-07-19 20:08:21 GMT 37.128483 -76.638535 27,700 217 442 -7168
2019-07-19 20:08:11 GMT 37.144867 -76.623550 30,100 217 431 -7616
2019-07-19 20:07:59 GMT 37.163681 -76.606377 31,125 217 417 -7424
2019-07-19 20:07:50 GMT 37.176590 -76.594574 31,725 217 407 -6400
2019-07-19 20:07:47 GMT 37.181923 -76.589691 31,725 217 407 -6400
2019-07-19 20:07:39 GMT 37.194633 -76.578049 32,525 217 403 -4608
2019-07-19 20:07:29 GMT 37.209457 -76.564537 33,250 217 404 -3712
2019-07-19 20:07:18 GMT 37.226349 -76.549171 33,700 216 406 -1984
2019-07-19 20:07:14 GMT 37.230991 -76.544975 33,800 216 407 -1856
2019-07-19 20:07:08 GMT 37.242920 -76.534210 34,000 216 406 0
2019-07-19 20:07:02 GMT 37.249844 -76.527893 34,000 216 406 -192
2019-07-19 20:06:57 GMT 37.257294 -76.521210 34,000 216 406 -64
2019-07-19 20:06:54 GMT 37.264507 -76.514702 34,000 216 406 -64
2019-07-19 20:06:46 GMT 37.274982 -76.505203 34,000 216 406 0
2019-07-19 20:06:43 GMT 37.281078 -76.499710 34,000 216 406 64
2019-07-19 20:06:36 GMT 37.291927 -76.489799 34,000 216 406 64
2019-07-19 20:06:33 GMT 37.295929 -76.486176 34,000 216 406 -64
2019-07-19 20:06:25 GMT 37.306915 -76.476181 34,000 217 406 0
2019-07-19 20:06:21 GMT 37.313599 -76.470047 34,000 217 406 64
2019-07-19 20:06:14 GMT 37.323303 -76.461159 34,000 217 406 0
2019-07-19 20:06:10 GMT 37.329075 -76.455887 34,000 217 406 -64
2019-07-19 20:06:07 GMT 37.335175 -76.450333 34,000 217 406 -64
2019-07-19 20:06:03 GMT 37.340286 -76.445557 34,000 217 407 -64
2019-07-19 20:05:59 GMT 37.345779 -76.440536 34,000 217 407 -64
2019-07-19 20:05:52 GMT 37.357006 -76.430214 34,000 217 405 0
2019-07-19 20:05:49 GMT 37.361526 -76.426041 34,000 217 405 0
2019-07-19 20:05:42 GMT 37.372135 -76.416359 34,000 217 403 576
2019-07-19 20:05:32 GMT 37.388763 -76.401085 33,875 217 403 832
2019-07-19 20:05:24 GMT 37.398926 -76.391792 33,775 217 403 832
2019-07-19 20:05:20 GMT 37.405655 -76.385658 33,725 216 403 832
2019-07-19 20:05:13 GMT 37.417431 -76.374924 33,625 217 404 832
2019-07-19 20:05:10 GMT 37.421997 -76.370758 33,575 217 404 768
2019-07-19 20:05:05 GMT 37.434082 -76.359772 33,475 217 404 832
2019-07-19 20:04:58 GMT 37.438660 -76.355637 33,425 217 404 896
2019-07-19 20:04:53 GMT 37.447086 -76.347939 33,350 217 404 896
2019-07-19 20:04:49 GMT 37.450764 -76.344589 33,300 217 404 896
2019-07-19 20:04:44 GMT 37.459843 -76.336288 33,150 217 404 896
2019-07-19 20:04:41 GMT 37.464386 -76.332130 33,175 217 404 896
2019-07-19 20:04:33 GMT 37.475876 -76.321609 33,050 217 405 1024
2019-07-19 20:04:30 GMT 37.479858 -76.317963 33,000 217 405 1024
2019-07-19 20:04:27 GMT 37.485672 -76.312668 32,925 217 406 1088
2019-07-19 20:04:20 GMT 37.496197 -76.302979 32,825 217 406 1216
2019-07-19 20:04:16 GMT 37.512119 -76.288223 32,575 217 408 1344
2019-07-19 20:04:10 GMT 37.512119 -76.288223 32,550 217 411 1472
2019-07-19 20:04:06 GMT 37.517612 -76.283150 32,475 217 409 1408
2019-07-19 20:03:59 GMT 37.529110 -76.272522 32,300 217 412 1472
2019-07-19 20:03:56 GMT 37.532833 -76.269058 32,250 217 412 1344
2019-07-19 20:03:46 GMT 37.551773 -76.251602 32,025 217 413 640
2019-07-19 20:03:35 GMT 37.565002 -76.239326 32,000 217 409 64
2019-07-19 20:03:22 GMT 37.584824 -76.220985 32,000 217 407 64
2019-07-19 20:03:15 GMT 37.596611 -76.210129 32,000 217 403 64
2019-07-19 20:03:10 GMT 37.602615 -76.204636 32,000 216 402 -128
2019-07-19 20:03:03 GMT 37.612904 -76.195320 32,000 216 402 0
2019-07-19 20:02:59 GMT 37.618912 -76.189827 32,000 216 402 64
2019-07-19 20:02:56 GMT 37.623459 -76.185684 32,000 216 402 64
2019-07-19 20:02:50 GMT 37.633118 -76.176865 32,000 217 402 64
2019-07-19 20:02:46 GMT 37.637924 -76.172417 32,000 217 402 64
2019-07-19 20:02:39 GMT 37.648285 -76.162781 32,000 217 402 -64
2019-07-19 20:02:35 GMT 37.654846 -76.156693 32,000 217 404 -128
2019-07-19 20:02:29 GMT 37.663696 -76.148460 32,000 217 405 -64
2019-07-19 20:02:24 GMT 37.673096 -76.139793 32,000 217 406 -64
2019-07-19 20:02:18 GMT 37.681274 -76.132156 32,000 217 407 -64
2019-07-19 20:02:13 GMT 37.690384 -76.123680 31,975 217 407 640
2019-07-19 20:02:05 GMT 37.702286 -76.112686 31,725 217 407 1152
2019-07-19 20:02:01 GMT 37.707504 -76.107849 31,775 217 407 1152
2019-07-19 20:01:57 GMT 37.712063 -76.103607 31,725 217 407 1088
2019-07-19 20:01:48 GMT 37.725723 -76.090897 31,575 217 408 1024
2019-07-19 20:01:37 GMT 37.744583 -76.073364 31,350 217 409 1216
2019-07-19 20:01:28 GMT 37.768982 -76.050636 31,025 217 409 1216
2019-07-19 20:01:20 GMT 37.768982 -76.050636 31,025 217 410 1216
2019-07-19 20:01:17 GMT 37.773148 -76.046776 30,975 217 410 1216
2019-07-19 20:01:13 GMT 37.779373 -76.040993 30,675 217 410 1280
2019-07-19 20:01:08 GMT 37.788265 -76.032791 30,775 217 410 1280
2019-07-19 20:01:03 GMT 37.794617 -76.026970 30,575 217 412 1280
2019-07-19 20:00:56 GMT 37.804699 -76.017632 30,550 217 411 1280
2019-07-19 20:00:51 GMT 37.813110 -76.009727 30,200 217 412 1280
2019-07-19 20:00:48 GMT 37.817688 -76.005386 30,375 217 412 1280
2019-07-19 20:00:43 GMT 37.827511 -75.996193 30,250 217 413 1152
2019-07-19 20:00:39 GMT 37.831970 -75.992020 30,175 217 413 1152
2019-07-19 20:00:28 GMT 37.850555 -75.974670 29,925 217 414 1344
2019-07-19 20:00:24 GMT 37.855408 -75.970169 29,875 217 414 1280
2019-07-19 20:00:18 GMT 37.865124 -75.961143 29,725 217 414 1408
2019-07-19 20:00:14 GMT 37.868801 -75.957741 29,675 217 415 1344
2019-07-19 20:00:10 GMT 37.883423 -75.944160 29,400 217 415 1344
2019-07-19 19:59:56 GMT 37.899582 -75.929085 29,225 217 416 1216
2019-07-19 19:59:53 GMT 37.902695 -75.926224 29,200 217 416 1152
2019-07-19 19:59:48 GMT 37.911850 -75.917633 29,125 217 416 896
2019-07-19 19:59:34 GMT 37.933548 -75.897293 28,900 217 414 832
2019-07-19 19:59:29 GMT 37.939682 -75.891571 28,850 217 413 1088
2019-07-19 19:59:26 GMT 37.945518 -75.886093 28,750 217 414 1344
2019-07-19 19:59:21 GMT 37.950165 -75.881752 28,675 217 414 1472
2019-07-19 19:59:14 GMT 37.962791 -75.870033 28,425 217 416 1984
2019-07-19 19:59:11 GMT 37.967422 -75.865677 28,400 217 414 1856
2019-07-19 19:59:02 GMT 37.981705 -75.852417 28,000 217 418 2048
2019-07-19 19:58:52 GMT 37.998642 -75.836693 27,800 217 420 1344
2019-07-19 19:58:49 GMT 38.000217 -75.835220 27,575 217 418 640
2019-07-19 19:58:43 GMT 38.013062 -75.823311 27,650 217 419 896
2019-07-19 19:58:39 GMT 38.017723 -75.818977 27,600 217 419 832
2019-07-19 19:58:30 GMT 38.033020 -75.804726 27,475 217 416 448
2019-07-19 19:58:18 GMT 38.050030 -75.788826 27,450 217 414 128
2019-07-19 19:58:07 GMT 38.066940 -75.772995 27,100 217 409 896
2019-07-19 19:58:04 GMT 38.070557 -75.769547 27,100 217 409 896
2019-07-19 19:57:57 GMT 38.083130 -75.757835 27,225 217 409 576
2019-07-19 19:57:46 GMT 38.099514 -75.742432 26,850 217 407 1088
2019-07-19 19:57:34 GMT 38.116196 -75.726830 26,750 217 406 896
2019-07-19 19:57:27 GMT 38.126842 -75.716881 26,725 217 409 1152
2019-07-19 19:57:24 GMT 38.133545 -75.710609 26,625 217 409 1088
2019-07-19 19:57:11 GMT 38.153183 -75.692177 26,350 217 407 768
2019-07-19 19:57:06 GMT 38.159008 -75.686722 26,400 217 408 768
2019-07-19 19:57:03 GMT 38.170807 -75.675522 26,325 217 408 704
2019-07-19 19:56:59 GMT 38.170807 -75.675522 26,250 217 407 768
2019-07-19 19:56:52 GMT 38.180603 -75.666229 26,225 217 406 832
2019-07-19 19:56:45 GMT 38.190262 -75.657112 25,575 217 406 832
2019-07-19 19:56:40 GMT 38.198639 -75.649109 26,000 217 405 832
2019-07-19 19:56:34 GMT 38.207703 -75.640579 25,975 217 405 832
2019-07-19 19:56:29 GMT 38.214592 -75.634064 25,900 217 404 896
2019-07-19 19:56:22 GMT 38.225143 -75.624100 25,800 217 404 960
2019-07-19 19:56:13 GMT 38.241081 -75.609100 25,625 217 404 896
2019-07-19 19:56:01 GMT 38.258194 -75.593010 25,500 217 403 768
2019-07-19 19:55:51 GMT 38.273529 -75.578537 25,350 217 401 832
2019-07-19 19:55:38 GMT 38.291451 -75.561577 25,200 217 400 896
2019-07-19 19:55:30 GMT 38.303322 -75.550293 25,075 217 400 832
2019-07-19 19:55:27 GMT 38.309235 -75.544617 25,025 216 400 832
2019-07-19 19:55:19 GMT 38.319809 -75.535095 24,925 214 399 896
2019-07-19 19:55:16 GMT 38.333130 -75.524872 24,875 207 400 960
2019-07-19 19:55:11 GMT 38.333130 -75.524872 24,800 207 400 960
2019-07-19 19:55:08 GMT 38.337708 -75.521828 24,750 207 400 960
2019-07-19 19:55:03 GMT 38.346149 -75.516914 24,675 205 400 1024
2019-07-19 19:54:56 GMT 38.358307 -75.511253 24,550 199 400 896
2019-07-19 19:54:53 GMT 38.363003 -75.509514 24,525 195 401 960
2019-07-19 19:54:45 GMT 38.378319 -75.505753 24,400 188 401 832
2019-07-19 19:54:42 GMT 38.383713 -75.504829 24,350 187 400 896
2019-07-19 19:54:37 GMT 38.404758 -75.501747 24,225 187 400 1024
2019-07-19 19:54:32 GMT 38.404758 -75.501747 23,700 187 401 1024
2019-07-19 19:54:28 GMT 38.408936 -75.501144 24,050 187 400 1088
2019-07-19 19:54:25 GMT 38.415573 -75.500198 24,050 187 400 1088
2019-07-19 19:54:17 GMT 38.431435 -75.497864 23,900 188 401 1152
2019-07-19 19:54:14 GMT 38.435108 -75.497314 23,850 188 401 1152
2019-07-19 19:54:07 GMT 38.448284 -75.495239 23,700 188 401 1088
2019-07-19 19:54:03 GMT 38.455036 -75.494202 23,675 187 401 1088
2019-07-19 19:53:56 GMT 38.468304 -75.492188 23,550 187 401 1088
2019-07-19 19:53:50 GMT 38.479019 -75.490700 23,450 187 401 1088
2019-07-19 19:53:42 GMT 38.495270 -75.488312 21,700 187 394 896
2019-07-19 19:53:30 GMT 38.516647 -75.485031 23,150 188 401 832
2019-07-19 19:53:22 GMT 38.530960 -75.482849 23,000 187 398 1024
2019-07-19 19:53:11 GMT 38.554779 -75.479416 22,675 187 397 1216
2019-07-19 19:53:04 GMT 38.563782 -75.478149 22,700 187 397 1216
2019-07-19 19:52:58 GMT 38.574162 -75.476562 22,600 187 397 1344
2019-07-19 19:52:48 GMT 38.593506 -75.473564 22,350 187 391 896
2019-07-19 19:52:35 GMT 38.617126 -75.470161 22,100 187 399 1280
2019-07-19 19:52:23 GMT 38.638504 -75.467056 21,850 187 397 896
2019-07-19 19:52:16 GMT 38.652088 -75.465027 21,275 187 394 896
2019-07-19 19:52:09 GMT 38.664917 -75.463120 21,700 187 394 896
2019-07-19 19:52:04 GMT 38.674713 -75.461609 21,600 187 395 896
2019-07-19 19:51:59 GMT 38.683823 -75.460251 21,550 187 392 1152
2019-07-19 19:51:48 GMT 38.702274 -75.457458 21,125 187 392 1152
2019-07-19 19:51:40 GMT 38.718006 -75.455139 21,225 187 391 896
2019-07-19 19:51:37 GMT 38.722687 -75.454399 21,125 187 392 1088
2019-07-19 19:51:32 GMT 38.732487 -75.452942 21,050 187 391 896
2019-07-19 19:51:28 GMT 38.740219 -75.451775 20,975 187 390 960
2019-07-19 19:51:22 GMT 38.750549 -75.450195 20,825 187 387 1152
2019-07-19 19:51:17 GMT 38.758896 -75.448967 20,850 187 378 1216
2019-07-19 19:51:11 GMT 38.769260 -75.447388 20,625 187 388 1024
2019-07-19 19:51:00 GMT 38.789612 -75.444305 20,500 187 387 1152
2019-07-19 19:50:52 GMT 38.810989 -75.441086 20,300 187 385 832
2019-07-19 19:50:49 GMT 38.822342 -75.439415 20,150 187 379 896
2019-07-19 19:50:41 GMT 38.822342 -75.439415 19,825 187 379 896
2019-07-19 19:50:38 GMT 38.831497 -75.438042 20,175 187 381 768
2019-07-19 19:50:35 GMT 38.833271 -75.437744 20,150 187 378 1472
2019-07-19 19:50:27 GMT 38.849075 -75.435356 20,050 187 379 832
2019-07-19 19:50:18 GMT 38.864365 -75.433022 19,675 187 376 1728
2019-07-19 19:50:05 GMT 38.885193 -75.429916 19,650 187 376 1216
2019-07-19 19:49:55 GMT 38.904915 -75.426880 19,375 187 377 1728
2019-07-19 19:49:42 GMT 38.925678 -75.423767 19,075 187 378 1472
2019-07-19 19:49:35 GMT 38.939644 -75.421631 18,850 187 379 1536
2019-07-19 19:49:29 GMT 38.950069 -75.420044 18,725 187 379 1280
2019-07-19 19:49:19 GMT 38.965897 -75.417679 18,550 187 377 1088
2019-07-19 19:49:10 GMT 38.983932 -75.414932 18,375 187 375 1024
2019-07-19 19:49:07 GMT 38.987034 -75.414429 15,950 188 365 1664
2019-07-19 19:49:01 GMT 39.008698 -75.411171 17,875 187 372 1152
2019-07-19 19:48:55 GMT 39.008698 -75.411171 18,100 187 372 1152
2019-07-19 19:48:50 GMT 39.015518 -75.410156 18,025 187 372 1216
2019-07-19 19:48:45 GMT 39.035202 -75.407173 17,700 187 370 1408
2019-07-19 19:48:39 GMT 39.035202 -75.407173 17,775 187 370 1408
2019-07-19 19:48:33 GMT 39.045177 -75.405640 17,525 187 369 1280
2019-07-19 19:48:29 GMT 39.053696 -75.404366 17,525 187 366 1472
2019-07-19 19:48:20 GMT 39.065964 -75.402512 17,400 187 367 1344
2019-07-19 19:48:17 GMT 39.072365 -75.401550 17,325 188 365 1728
2019-07-19 19:48:11 GMT 39.083164 -75.399902 17,025 187 366 1472
2019-07-19 19:48:05 GMT 39.091553 -75.398636 17,025 187 365 1728
2019-07-19 19:47:59 GMT 39.103683 -75.396782 16,825 187 365 1728
2019-07-19 19:47:54 GMT 39.112072 -75.395508 16,675 187 365 1728
2019-07-19 19:47:50 GMT 39.118729 -75.394470 16,575 187 365 1792
2019-07-19 19:47:44 GMT 39.127213 -75.393196 16,400 187 366 1728
2019-07-19 19:47:36 GMT 39.140331 -75.391174 16,200 187 366 1728
2019-07-19 19:47:33 GMT 39.145729 -75.390320 16,125 182 359 1792
2019-07-19 19:47:30 GMT 39.150787 -75.389557 16,025 187 366 1728
2019-07-19 19:47:27 GMT 39.157516 -75.388542 15,925 188 365 1728
2019-07-19 19:47:24 GMT 39.160858 -75.388000 15,875 188 365 1728
2019-07-19 19:47:19 GMT 39.171066 -75.386330 15,700 188 365 1664
2019-07-19 19:47:14 GMT 39.177658 -75.385315 14,875 186 364 1408
2019-07-19 19:47:09 GMT 39.187626 -75.383972 15,450 183 360 1472
2019-07-19 19:47:04 GMT 39.196701 -75.382927 15,350 185 363 1344
2019-07-19 19:46:58 GMT 39.204025 -75.382210 15,250 182 354 1792
2019-07-19 19:46:55 GMT 39.211090 -75.381592 15,150 184 361 1472
2019-07-19 19:46:50 GMT 39.217651 -75.381165 15,075 183 360 1536
2019-07-19 19:46:47 GMT 39.224449 -75.380798 14,925 183 360 1600
2019-07-19 19:46:43 GMT 39.231106 -75.380493 14,750 182 360 1728
2019-07-19 19:46:38 GMT 39.237762 -75.380310 14,750 182 359 1728
2019-07-19 19:46:33 GMT 39.246284 -75.380127 14,525 182 359 1792
2019-07-19 19:46:30 GMT 39.251358 -75.380005 14,500 182 359 1792
2019-07-19 19:46:27 GMT 39.256290 -75.379883 14,425 182 358 1792
2019-07-19 19:46:22 GMT 39.266346 -75.379639 14,200 182 357 1536
2019-07-19 19:46:18 GMT 39.270676 -75.379524 14,125 182 357 1472
2019-07-19 19:46:14 GMT 39.280266 -75.379272 14,000 182 355 1536
2019-07-19 19:46:08 GMT 39.287483 -75.379089 13,875 182 354 1728
2019-07-19 19:46:01 GMT 39.298965 -75.378807 13,550 182 354 1920
2019-07-19 19:45:58 GMT 39.304092 -75.378693 13,550 182 354 1984
2019-07-19 19:45:50 GMT 39.318810 -75.378296 13,275 182 354 1920
2019-07-19 19:45:47 GMT 39.321213 -75.378212 12,325 182 351 1792
2019-07-19 19:45:40 GMT 39.333336 -75.377869 12,725 182 353 1856
2019-07-19 19:45:36 GMT 39.339569 -75.377731 12,750 182 353 1856
2019-07-19 19:45:30 GMT 39.351631 -75.377380 12,650 182 352 1856
2019-07-19 19:45:26 GMT 39.356369 -75.377258 12,550 182 352 1856
2019-07-19 19:45:16 GMT 39.372803 -75.376778 12,225 182 351 1920
2019-07-19 19:45:08 GMT 39.387177 -75.376419 11,925 182 351 1792
2019-07-19 19:45:05 GMT 39.392349 -75.376244 11,850 182 350 1728
2019-07-19 19:44:53 GMT 39.409927 -75.375824 11,475 182 347 1856
2019-07-19 19:44:43 GMT 39.427322 -75.375404 11,200 182 346 1792
2019-07-19 19:44:34 GMT 39.440781 -75.375107 11,000 182 345 1344
2019-07-19 19:44:31 GMT 39.453812 -75.374695 10,675 182 341 1280
2019-07-19 19:44:23 GMT 39.457306 -75.374634 10,825 182 340 1280
2019-07-19 19:44:18 GMT 39.467239 -75.374329 10,675 182 338 1216
2019-07-19 19:44:10 GMT 39.478348 -75.374023 10,550 182 334 1024
2019-07-19 19:44:07 GMT 39.484489 -75.373840 10,500 182 331 768
2019-07-19 19:44:00 GMT 39.493664 -75.373596 10,450 182 326 384
2019-07-19 19:43:56 GMT 39.499714 -75.373474 10,425 181 318 448
2019-07-19 19:43:47 GMT 39.514378 -75.373169 10,400 181 309 1472
2019-07-19 19:43:43 GMT 39.524414 -75.372955 10,175 181 308 1664
2019-07-19 19:43:39 GMT 39.524414 -75.372955 10,025 181 307 1664
2019-07-19 19:43:32 GMT 39.534348 -75.372742 9,975 181 305 1472
2019-07-19 19:43:28 GMT 39.540958 -75.372559 9,825 182 302 1664
2019-07-19 19:43:24 GMT 39.547531 -75.372421 9,675 181 301 2048
2019-07-19 19:43:16 GMT 39.556740 -75.372192 9,350 182 301 2432
2019-07-19 19:43:12 GMT 39.564003 -75.372009 8,900 182 302 2432
2019-07-19 19:43:09 GMT 39.566284 -75.371948 9,150 182 302 2304
2019-07-19 19:43:05 GMT 39.572430 -75.371765 8,950 182 302 2368
2019-07-19 19:42:58 GMT 39.581367 -75.371521 8,725 182 302 2560
2019-07-19 19:42:54 GMT 39.595688 -75.371109 8,175 181 298 1984
2019-07-19 19:42:49 GMT 39.595688 -75.371109 8,325 182 302 1856
2019-07-19 19:42:45 GMT 39.601868 -75.370926 8,200 182 301 1856
2019-07-19 19:42:42 GMT 39.604568 -75.370865 8,125 181 298 1984
2019-07-19 19:42:39 GMT 39.608093 -75.370750 7,875 181 299 1984
2019-07-19 19:42:35 GMT 39.614182 -75.370628 7,925 181 298 1984
2019-07-19 19:42:29 GMT 39.622192 -75.370422 7,725 181 297 1984
2019-07-19 19:42:25 GMT 39.629314 -75.370300 7,550 181 295 1984
2019-07-19 19:42:21 GMT 39.633408 -75.370209 7,450 181 293 2368
2019-07-19 19:42:17 GMT 39.639313 -75.370155 7,225 181 293 2368
2019-07-19 19:42:13 GMT 39.643978 -75.370056 7,150 181 293 2496
2019-07-19 19:42:09 GMT 39.650757 -75.369911 6,950 182 292 2368
2019-07-19 19:42:06 GMT 39.653915 -75.369797 6,850 182 292 2240
2019-07-19 19:42:03 GMT 39.658905 -75.369675 6,725 182 291 2048
2019-07-19 19:41:57 GMT 39.665771 -75.369492 6,600 182 290 1920
2019-07-19 19:41:54 GMT 39.668839 -75.369385 6,475 182 289 2048
2019-07-19 19:41:51 GMT 39.673920 -75.369255 6,350 182 288 2112
2019-07-19 19:41:48 GMT 39.678635 -75.369141 6,225 182 286 2176
2019-07-19 19:41:43 GMT 39.685089 -75.368896 6,000 182 285 2112
2019-07-19 19:41:40 GMT 39.688248 -75.368835 5,975 182 284 2112
2019-07-19 19:41:37 GMT 39.692207 -75.368713 5,850 182 282 2112
2019-07-19 19:41:32 GMT 39.698910 -75.368530 5,525 182 281 2048
2019-07-19 19:41:26 GMT 39.705872 -75.368362 5,500 182 280 2240
2019-07-19 19:41:20 GMT 39.714413 -75.368103 5,225 182 278 2432
2019-07-19 19:41:16 GMT 39.719673 -75.367981 5,075 182 278 2368
2019-07-19 19:41:07 GMT 39.732330 -75.367760 4,675 181 276 2304
2019-07-19 19:41:02 GMT 39.737686 -75.367676 4,525 181 276 2304
2019-07-19 19:40:57 GMT 39.744904 -75.367554 4,300 182 273 2304
2019-07-19 19:40:45 GMT 39.759705 -75.366089 3,875 190 266 2112
2019-07-19 19:40:33 GMT 39.772614 -75.360779 3,500 216 244 640
2019-07-19 19:40:22 GMT 39.783123 -75.351746 3,450 216 236 448
2019-07-19 19:40:19 GMT 39.785961 -75.349121 3,425 216 231 640
2019-07-19 19:40:13 GMT 39.793552 -75.342285 3,275 215 222 1536
2019-07-19 19:40:04 GMT 39.799576 -75.336838 3,025 216 216 2048
2019-07-19 19:39:59 GMT 39.807404 -75.329666 2,125 216 211 1728
2019-07-19 19:39:53 GMT 39.807404 -75.329666 2,700 216 206 1600
2019-07-19 19:39:50 GMT 39.811611 -75.325745 2,600 216 206 1600
2019-07-19 19:39:41 GMT 39.816875 -75.320801 2,425 216 198 1216
2019-07-19 19:39:37 GMT 39.820457 -75.317566 2,350 215 192 1216
2019-07-19 19:39:30 GMT 39.824707 -75.313728 2,200 215 188 1792
2019-07-19 19:39:25 GMT 39.828606 -75.310181 2,050 216 186 1792
2019-07-19 19:39:22 GMT 39.830704 -75.308235 1,975 217 186 1664
2019-07-19 19:39:19 GMT 39.832626 -75.306442 1,900 217 184 1472
2019-07-19 19:39:12 GMT 39.837635 -75.301514 1,750 217 177 896
2019-07-19 19:39:06 GMT 39.840912 -75.298386 1,675 217 174 896
2019-07-19 19:39:01 GMT 39.844391 -75.295036 1,550 216 166 960
2019-07-19 19:38:57 GMT 39.847553 -75.292114 1,475 216 164 1088
2019-07-19 19:38:53 GMT 39.850800 -75.289070 1,350 218 154 1216
2019-07-19 19:38:50 GMT 39.851089 -75.288818 1,350 217 155 1152

Making use of Plane Finder data

You are free to use the raw flight data, aircraft information and images provided in this report for your own purposes provided the data is correctly attributed to Plane Finder. We ask that you please credit Plane Finder and link to planefinder.net in close proximity to the content.

Optionally one of the following logos (no smaller then 150x24px) can be used and must link to planefinder.net

Embedding the Plane Finder map

You are welcome to embed the Plane Finder playback map on your website to offer visitors a more interactive experience. We suggest using the following HTML code:

<iframe src="//planefinder.net/data/report/AA4599-N101HQ-7700-squawk-2019-07-19/map" width="800" height="600" seamless="seamless"></iframe>

Where our data comes from

Plane Finder has a global network of data feeds and antenna radars that receive data broadcast directly from aircraft. The primary technologies used are ADS-B and MLAT. We also show feeds from the FAA and a FLARM glider feed.

Click here to find out more about the Plane Finder network.

How we collect our data